createdAt,value
2022-12-25T00:04:40.604Z,65.98
2022-12-25T00:14:43.743Z,65.72
2022-12-25T00:24:49.895Z,65.53
2022-12-25T00:34:53.060Z,65.09
2022-12-25T00:44:57.537Z,64.82
2022-12-25T00:55:00.711Z,66.29
2022-12-25T01:05:06.660Z,66.07
2022-12-25T01:15:11.324Z,66.76
2022-12-25T01:25:15.837Z,66.54
2022-12-25T01:35:19.142Z,67.73
2022-12-25T01:45:45.218Z,66.66
2022-12-25T01:55:51.208Z,66.70
2022-12-25T02:05:56.221Z,66.90
2022-12-25T02:16:04.327Z,66.67
2022-12-25T02:26:17.162Z,68.67
2022-12-25T02:36:24.684Z,66.67
2022-12-25T02:46:46.447Z,66.35
2022-12-25T02:57:09.651Z,66.93
2022-12-25T03:07:14.583Z,66.53
2022-12-25T03:17:19.181Z,66.95
2022-12-25T03:27:22.306Z,67.15
2022-12-25T03:37:52.330Z,67.04
2022-12-25T03:48:22.735Z,67.08
2022-12-25T03:58:46.510Z,65.94
2022-12-25T04:09:06.988Z,66.61
2022-12-25T04:19:35.728Z,66.08
2022-12-25T04:29:56.294Z,66.52
2022-12-25T04:40:00.837Z,66.92
2022-12-25T04:50:04.031Z,65.99
2022-12-25T05:00:10.143Z,66.54
2022-12-25T05:10:13.264Z,66.24
2022-12-25T05:20:17.845Z,66.06
2022-12-25T05:30:21.053Z,70.03
2022-12-25T05:40:25.598Z,68.33
2022-12-25T05:50:28.905Z,67.39
2022-12-25T06:00:33.616Z,67.94
2022-12-25T06:10:37.375Z,67.11
2022-12-25T06:20:42.760Z,66.80
2022-12-25T06:30:45.842Z,66.30
2022-12-25T06:40:50.368Z,66.12
2022-12-25T06:50:53.497Z,65.18
2022-12-25T07:00:59.362Z,66.29
2022-12-25T07:11:02.674Z,65.74
2022-12-25T07:21:13.131Z,66.03
2022-12-25T07:31:17.735Z,66.28
2022-12-25T07:41:22.393Z,64.85
2022-12-25T07:51:25.508Z,64.90
2022-12-25T08:01:30.589Z,64.05
2022-12-25T08:11:33.968Z,64.03
2022-12-25T08:21:38.569Z,66.53
2022-12-25T08:31:46.506Z,69.03
2022-12-25T08:41:51.218Z,69.05
2022-12-25T08:51:54.392Z,69.01
2022-12-25T09:01:59.020Z,66.00
2022-12-25T09:12:02.157Z,65.79
2022-12-25T09:22:06.678Z,64.95
2022-12-25T09:32:10.169Z,64.69
2022-12-25T09:42:17.359Z,62.97
2022-12-25T09:52:23.659Z,62.91
2022-12-25T10:03:06.662Z,62.90
2022-12-25T10:13:22.589Z,62.61
2022-12-25T10:23:28.515Z,61.39
2022-12-25T10:33:32.998Z,61.73
2022-12-25T10:43:40.123Z,61.28
2022-12-25T10:53:44.878Z,60.68
2022-12-25T11:03:52.674Z,60.52
2022-12-25T11:13:59.055Z,58.54
2022-12-25T11:24:03.646Z,57.66
2022-12-25T11:34:11.744Z,57.59
2022-12-25T11:44:26.604Z,57.59
2022-12-25T11:54:34.614Z,57.12
2022-12-25T12:04:43.098Z,56.55
2022-12-25T12:14:54.998Z,57.08
2022-12-25T12:25:02.249Z,56.55
2022-12-25T12:35:18.413Z,55.78
2022-12-25T12:45:26.621Z,56.52
2022-12-25T12:55:33.237Z,56.27
2022-12-25T13:05:40.408Z,56.20
2022-12-25T13:15:47.734Z,56.13
2022-12-25T13:25:53.545Z,56.17
2022-12-25T13:35:58.061Z,56.80
2022-12-25T13:46:01.155Z,56.85
2022-12-25T13:56:06.041Z,57.55
2022-12-25T14:06:19.095Z,57.96
2022-12-25T14:16:24.204Z,58.42
2022-12-25T14:26:29.736Z,59.22
2022-12-25T14:36:34.750Z,59.48
2022-12-25T14:46:37.922Z,59.73
2022-12-25T14:56:48.021Z,60.84
2022-12-25T15:06:56.588Z,61.41
2022-12-25T15:17:02.161Z,61.29
2022-12-25T15:27:05.481Z,61.65
2022-12-25T15:37:09.963Z,61.97
2022-12-25T15:47:13.909Z,61.93
2022-12-25T15:57:20.664Z,62.03
2022-12-25T16:07:25.062Z,62.02
2022-12-25T16:17:29.788Z,61.52
2022-12-25T16:27:32.860Z,60.32
2022-12-25T16:37:37.526Z,60.10
2022-12-25T16:47:41.150Z,59.51
2022-12-25T16:57:47.750Z,59.88
2022-12-25T17:07:51.153Z,60.75
2022-12-25T17:17:55.820Z,60.72
2022-12-25T17:27:59.037Z,61.08
2022-12-25T17:38:03.494Z,60.83
2022-12-25T17:48:06.711Z,61.52
2022-12-25T17:58:11.331Z,61.71
2022-12-25T18:08:14.662Z,61.97
2022-12-25T18:18:19.168Z,62.09
2022-12-25T18:28:22.307Z,62.91
2022-12-25T18:38:27.070Z,62.98
2022-12-25T18:48:30.791Z,62.72
2022-12-25T18:58:35.659Z,63.79
2022-12-25T19:08:38.780Z,64.11
2022-12-25T19:18:43.651Z,63.89
2022-12-25T19:28:46.796Z,63.38
2022-12-25T19:38:51.342Z,64.11
2022-12-25T19:48:55.768Z,64.22
2022-12-25T19:59:00.588Z,64.51
2022-12-25T20:09:06.255Z,64.41
2022-12-25T20:19:11.377Z,64.79
2022-12-25T20:29:14.660Z,64.88
2022-12-25T20:39:19.163Z,64.95
2022-12-25T20:49:22.360Z,65.03
2022-12-25T20:59:29.765Z,66.54
2022-12-25T21:09:36.640Z,65.48
2022-12-25T21:19:41.080Z,68.85
2022-12-25T21:29:44.171Z,66.41
2022-12-25T21:39:50.146Z,65.54
2022-12-25T21:50:10.436Z,67.20
2022-12-25T22:00:15.692Z,66.27
2022-12-25T22:10:18.775Z,65.64
2022-12-25T22:20:25.395Z,65.41
2022-12-25T22:30:30.219Z,65.32
2022-12-25T22:40:34.659Z,64.98
2022-12-25T22:50:37.716Z,65.30
2022-12-25T23:00:46.473Z,64.53
2022-12-25T23:10:49.773Z,65.12
2022-12-25T23:21:11.871Z,64.85
2022-12-25T23:31:14.777Z,64.39
2022-12-25T23:41:19.309Z,64.56
2022-12-25T23:51:22.533Z,64.64
